createdAt,value
2018-02-03T00:00:20.048Z,11.60
2018-02-03T00:02:47.547Z,11.70
2018-02-03T00:05:14.951Z,13.00
2018-02-03T00:07:42.342Z,13.43
2018-02-03T00:10:09.734Z,13.43
2018-02-03T00:12:37.138Z,14.27
2018-02-03T00:15:04.527Z,14.63
2018-02-03T00:17:31.951Z,13.80
2018-02-03T00:19:59.338Z,14.47
2018-02-03T00:22:26.737Z,13.43
2018-02-03T00:24:54.154Z,14.40
2018-02-03T00:27:21.563Z,14.33
2018-02-03T00:29:48.984Z,14.33
2018-02-03T00:32:16.382Z,15.50
2018-02-03T00:34:43.774Z,14.30
2018-02-03T00:37:11.220Z,15.20
2018-02-03T00:39:38.618Z,15.23
2018-02-03T00:42:06.004Z,15.80
2018-02-03T00:44:33.393Z,15.90
2018-02-03T00:47:00.830Z,17.07
2018-02-03T00:49:28.230Z,17.43
2018-02-03T00:51:55.722Z,15.97
2018-02-03T00:54:23.123Z,16.70
2018-02-03T00:56:50.530Z,15.50
2018-02-03T00:59:17.919Z,16.20
2018-02-03T01:01:45.327Z,15.83
2018-02-03T01:04:12.725Z,17.10
2018-02-03T01:06:40.133Z,15.63
2018-02-03T01:09:07.739Z,16.37
2018-02-03T01:11:35.175Z,17.07
2018-02-03T01:14:02.611Z,17.53
2018-02-03T01:16:30.230Z,14.53
2018-02-03T01:18:57.632Z,15.30
2018-02-03T01:21:25.063Z,15.80
2018-02-03T01:23:52.494Z,16.60
2018-02-03T01:26:19.894Z,14.80
2018-02-03T01:28:47.317Z,15.70
2018-02-03T01:31:14.797Z,15.25
2018-02-03T01:33:42.206Z,16.57
2018-02-03T01:36:09.679Z,16.90
2018-02-03T01:38:37.095Z,15.37
2018-02-03T01:41:04.506Z,15.60
2018-02-03T01:43:31.882Z,15.03
2018-02-03T01:45:59.289Z,15.00
2018-02-03T01:48:26.708Z,14.47
2018-02-03T01:50:54.202Z,13.37
2018-02-03T01:53:21.607Z,12.67
2018-02-03T01:55:49.002Z,14.83
2018-02-03T01:58:16.438Z,14.20
2018-02-03T02:00:43.858Z,13.33
2018-02-03T02:03:11.248Z,13.80
2018-02-03T02:05:38.654Z,13.77
2018-02-03T02:08:06.051Z,14.90
2018-02-03T02:10:33.477Z,13.60
2018-02-03T02:13:00.892Z,13.90
2018-02-03T02:15:28.282Z,14.30
2018-02-03T02:17:55.701Z,14.77
2018-02-03T02:20:23.123Z,14.40
2018-02-03T02:22:50.531Z,12.63
2018-02-03T02:25:17.923Z,14.33
2018-02-03T02:27:45.329Z,12.53
2018-02-03T02:30:12.710Z,13.30
2018-02-03T02:32:40.118Z,12.03
2018-02-03T02:35:07.619Z,11.33
2018-02-03T02:37:35.031Z,11.93
2018-02-03T02:40:02.435Z,12.53
2018-02-03T02:42:29.842Z,12.27
2018-02-03T02:44:57.247Z,11.57
2018-02-03T02:47:24.659Z,11.63
2018-02-03T02:49:52.055Z,12.50
2018-02-03T02:52:19.462Z,11.43
2018-02-03T02:54:46.861Z,12.50
2018-02-03T02:57:14.265Z,12.40
2018-02-03T02:59:41.642Z,12.03
2018-02-03T03:02:09.062Z,12.27
2018-02-03T03:04:36.460Z,12.70
2018-02-03T03:07:03.874Z,12.60
2018-02-03T03:09:31.267Z,13.07
2018-02-03T03:11:58.652Z,11.83
2018-02-03T03:14:26.104Z,12.00
2018-02-03T03:16:53.482Z,12.50
2018-02-03T03:19:20.905Z,11.10
2018-02-03T03:21:48.370Z,11.30
2018-02-03T03:24:15.793Z,10.70
2018-02-03T03:26:43.226Z,9.93
2018-02-03T03:29:10.611Z,11.10
2018-02-03T03:31:38.022Z,11.70
2018-02-03T03:34:05.471Z,10.67
2018-02-03T03:36:32.862Z,11.03
2018-02-03T03:39:00.346Z,10.37
2018-02-03T03:41:27.738Z,11.37
2018-02-03T03:43:55.229Z,10.50
2018-02-03T03:46:22.615Z,11.70
2018-02-03T03:48:50.122Z,12.33
2018-02-03T03:51:17.511Z,11.10
2018-02-03T03:53:44.953Z,10.43
2018-02-03T03:56:12.351Z,10.80
2018-02-03T03:58:39.848Z,10.10
2018-02-03T04:01:07.248Z,10.63
2018-02-03T04:03:34.677Z,10.57
2018-02-03T04:06:02.115Z,10.97
2018-02-03T04:08:29.518Z,11.50
2018-02-03T04:10:56.914Z,11.63
2018-02-03T04:13:24.325Z,10.77
2018-02-03T04:15:51.735Z,10.40
2018-02-03T04:18:19.127Z,10.10
2018-02-03T04:20:46.547Z,10.50
2018-02-03T04:23:13.946Z,11.50
2018-02-03T04:25:41.342Z,10.17
2018-02-03T04:28:08.744Z,12.60
2018-02-03T04:30:36.140Z,11.60
2018-02-03T04:33:03.530Z,13.27
2018-02-03T04:35:30.954Z,15.10
2018-02-03T04:37:58.557Z,15.07
2018-02-03T04:40:25.974Z,14.00
2018-02-03T04:42:53.345Z,13.27
2018-02-03T04:45:20.766Z,12.67
2018-02-03T04:47:48.166Z,14.30
2018-02-03T04:50:15.570Z,13.73
2018-02-03T04:52:42.969Z,12.10
2018-02-03T04:55:10.376Z,12.60
2018-02-03T04:57:37.767Z,13.40
2018-02-03T05:00:05.176Z,14.33
2018-02-03T05:02:32.566Z,13.80
2018-02-03T05:04:59.947Z,14.00
2018-02-03T05:07:27.346Z,13.40
2018-02-03T05:09:54.748Z,14.47
2018-02-03T05:12:22.149Z,12.80
2018-02-03T05:14:49.538Z,13.07
2018-02-03T05:17:17.279Z,14.37
2018-02-03T05:19:44.677Z,12.23
2018-02-03T05:22:12.068Z,12.37
2018-02-03T05:24:39.471Z,14.00
2018-02-03T05:27:06.933Z,13.70
2018-02-03T05:29:34.319Z,12.77
2018-02-03T05:32:01.714Z,12.30
2018-02-03T05:34:29.108Z,13.23
2018-02-03T05:36:56.518Z,13.30
2018-02-03T05:39:23.921Z,14.20
2018-02-03T05:41:51.316Z,12.30
2018-02-03T05:44:21.970Z,13.50
2018-02-03T05:46:49.368Z,13.90
2018-02-03T05:49:16.754Z,12.60
2018-02-03T05:51:44.253Z,13.57
2018-02-03T05:54:11.638Z,13.83
2018-02-03T05:56:39.052Z,13.10
2018-02-03T05:59:06.513Z,14.20
2018-02-03T06:01:33.936Z,14.00
2018-02-03T06:04:01.335Z,13.27
2018-02-03T06:06:28.849Z,14.23
2018-02-03T06:08:56.237Z,13.37
2018-02-03T06:11:23.631Z,15.17
2018-02-03T06:13:51.034Z,16.10
2018-02-03T06:16:18.427Z,14.60
2018-02-03T06:18:45.847Z,14.87
2018-02-03T06:21:13.242Z,15.27
2018-02-03T06:23:40.647Z,14.83
2018-02-03T06:26:08.034Z,15.17
2018-02-03T06:28:35.443Z,14.07
2018-02-03T06:31:02.975Z,15.07
2018-02-03T06:33:30.382Z,13.80
2018-02-03T06:35:57.772Z,14.70
2018-02-03T06:38:25.195Z,15.93
2018-02-03T06:40:52.599Z,14.97
2018-02-03T06:43:20.022Z,13.90
2018-02-03T06:45:47.419Z,14.03
2018-02-03T06:48:14.842Z,14.67
2018-02-03T06:50:42.246Z,14.33
2018-02-03T06:53:09.634Z,13.90
2018-02-03T06:55:37.025Z,14.70
2018-02-03T06:58:04.450Z,14.77
2018-02-03T07:00:31.867Z,13.85
2018-02-03T07:02:59.262Z,14.77
2018-02-03T07:05:26.677Z,14.33
2018-02-03T07:07:54.107Z,14.23
2018-02-03T07:10:21.495Z,14.30
2018-02-03T07:12:48.889Z,13.80
2018-02-03T07:15:16.290Z,14.23
2018-02-03T07:17:43.691Z,13.83
2018-02-03T07:20:11.078Z,13.67
2018-02-03T07:22:38.622Z,13.70
2018-02-03T07:25:06.042Z,12.60
2018-02-03T07:27:33.443Z,14.27
2018-02-03T07:30:00.863Z,13.67
2018-02-03T07:32:28.274Z,13.13
2018-02-03T07:34:55.693Z,13.10
2018-02-03T07:37:23.082Z,13.60
2018-02-03T07:39:50.477Z,12.40
2018-02-03T07:42:17.867Z,13.33
2018-02-03T07:44:45.340Z,12.73
2018-02-03T07:47:12.733Z,13.00
2018-02-03T07:49:40.171Z,13.50
2018-02-03T07:52:07.561Z,13.73
2018-02-03T07:54:34.951Z,13.20
2018-02-03T07:57:02.357Z,13.33
2018-02-03T07:59:29.741Z,14.03
2018-02-03T08:01:57.148Z,13.13
2018-02-03T08:04:24.535Z,13.67
2018-02-03T08:06:51.935Z,13.13
2018-02-03T08:09:19.322Z,13.87
2018-02-03T08:11:47.780Z,15.10
2018-02-03T08:14:15.239Z,14.07
2018-02-03T08:16:42.742Z,16.30
2018-02-03T08:19:10.139Z,13.90
2018-02-03T08:21:37.551Z,14.40
2018-02-03T08:24:04.948Z,15.33
2018-02-03T08:26:32.346Z,14.40
2018-02-03T08:29:00.716Z,13.60
2018-02-03T08:31:29.987Z,14.53
2018-02-03T08:33:57.522Z,16.00
2018-02-03T08:36:24.935Z,16.00
2018-02-03T08:38:52.323Z,15.80
2018-02-03T08:41:19.724Z,14.37
2018-02-03T08:43:47.124Z,15.73
2018-02-03T08:46:14.532Z,14.77
2018-02-03T08:48:41.906Z,15.10
2018-02-03T08:51:09.322Z,15.33
2018-02-03T08:53:36.718Z,14.10
2018-02-03T08:56:04.127Z,14.40
2018-02-03T08:58:31.566Z,13.80
2018-02-03T09:00:58.991Z,15.10
2018-02-03T09:03:26.379Z,14.33
2018-02-03T09:05:53.762Z,14.17
2018-02-03T09:08:21.176Z,13.00
2018-02-03T09:10:48.574Z,15.20
2018-02-03T09:13:15.979Z,12.17
2018-02-03T09:15:43.374Z,10.60
2018-02-03T09:18:10.776Z,11.03
2018-02-03T09:20:38.185Z,11.63
2018-02-03T09:23:05.574Z,9.57
2018-02-03T09:25:32.979Z,9.23
2018-02-03T09:28:00.426Z,9.20
2018-02-03T09:30:27.812Z,9.80
2018-02-03T09:32:55.223Z,8.77
2018-02-03T09:35:22.602Z,8.80
2018-02-03T09:37:50.023Z,8.23
2018-02-03T09:40:17.399Z,7.87
2018-02-03T09:42:44.823Z,6.60
2018-02-03T09:45:12.236Z,7.90
2018-02-03T09:47:39.658Z,6.53
2018-02-03T09:50:07.047Z,8.03
2018-02-03T09:52:34.452Z,7.80
2018-02-03T09:55:01.894Z,7.70
2018-02-03T09:57:29.282Z,7.13
2018-02-03T09:59:56.678Z,7.67
2018-02-03T10:02:24.078Z,8.20
2018-02-03T10:04:51.483Z,7.70
2018-02-03T10:07:18.963Z,9.57
2018-02-03T10:09:46.382Z,11.37
2018-02-03T10:12:13.783Z,8.47
2018-02-03T10:14:41.200Z,9.47
2018-02-03T10:17:08.567Z,8.57
2018-02-03T10:19:35.958Z,8.10
2018-02-03T10:22:03.333Z,8.00
2018-02-03T10:24:30.723Z,6.60
2018-02-03T10:26:58.109Z,6.73
2018-02-03T10:29:25.498Z,5.57
2018-02-03T10:31:52.933Z,4.85
2018-02-03T10:34:20.273Z,4.83
2018-02-03T10:36:47.662Z,4.93
2018-02-03T10:39:15.071Z,4.90
2018-02-03T10:41:42.467Z,5.00
2018-02-03T10:44:09.845Z,4.73
2018-02-03T10:46:37.314Z,4.47
2018-02-03T10:49:04.700Z,4.30
2018-02-03T10:51:32.089Z,5.00
2018-02-03T10:53:59.482Z,5.40
2018-02-03T10:56:26.946Z,5.90
2018-02-03T10:58:54.334Z,5.60
2018-02-03T11:01:21.727Z,5.57
2018-02-03T11:03:49.112Z,5.73
2018-02-03T11:06:16.512Z,7.37
2018-02-03T11:08:43.919Z,6.87
2018-02-03T11:11:11.302Z,6.50
2018-02-03T11:13:38.715Z,6.80
2018-02-03T11:16:06.106Z,7.20
2018-02-03T11:18:33.494Z,6.37
2018-02-03T11:21:00.895Z,5.53
2018-02-03T11:23:28.279Z,6.07
2018-02-03T11:25:55.673Z,6.07
2018-02-03T11:28:23.132Z,6.57
2018-02-03T11:30:50.637Z,7.73
2018-02-03T11:33:18.022Z,7.10
2018-02-03T11:35:45.416Z,6.23
2018-02-03T11:38:12.807Z,6.07
2018-02-03T11:40:40.191Z,6.47
2018-02-03T11:43:07.601Z,5.87
2018-02-03T11:45:34.978Z,6.50
2018-02-03T11:48:02.410Z,6.57
2018-02-03T11:50:29.818Z,6.40
2018-02-03T11:52:57.193Z,6.70
2018-02-03T11:55:24.591Z,7.00
2018-02-03T11:57:51.979Z,7.23
2018-02-03T12:00:19.385Z,6.17
2018-02-03T12:02:46.831Z,6.67
2018-02-03T12:05:14.206Z,6.40
2018-02-03T12:07:41.620Z,5.77
2018-02-03T12:10:09.008Z,6.53
2018-02-03T12:12:36.390Z,6.77
2018-02-03T12:15:03.786Z,6.47
2018-02-03T12:17:31.181Z,6.27
2018-02-03T12:19:58.554Z,5.40
2018-02-03T12:22:26.051Z,5.57
2018-02-03T12:24:53.522Z,5.27
2018-02-03T12:27:20.915Z,5.10
2018-02-03T12:29:48.394Z,5.37
2018-02-03T12:32:15.875Z,5.40
2018-02-03T12:34:44.070Z,5.07
2018-02-03T12:37:11.446Z,4.73
2018-02-03T12:39:38.833Z,5.03
2018-02-03T12:42:06.219Z,5.40
2018-02-03T12:44:33.617Z,4.60
2018-02-03T12:47:00.994Z,5.47
2018-02-03T12:49:28.411Z,4.83
2018-02-03T12:51:55.791Z,4.67
2018-02-03T12:54:23.265Z,5.30
2018-02-03T12:56:50.652Z,5.80
2018-02-03T12:59:18.057Z,6.73
2018-02-03T13:01:45.459Z,5.63
2018-02-03T13:04:12.862Z,6.20
2018-02-03T13:06:40.262Z,6.30
2018-02-03T13:09:07.683Z,5.37
2018-02-03T13:11:35.063Z,6.83
2018-02-03T13:14:02.466Z,7.50
2018-02-03T13:16:29.854Z,7.80
2018-02-03T13:18:57.326Z,8.70
2018-02-03T13:21:24.718Z,9.90
2018-02-03T13:23:52.116Z,9.20
2018-02-03T13:26:19.523Z,9.17
2018-02-03T13:28:46.914Z,9.10
2018-02-03T13:31:14.411Z,8.57
2018-02-03T13:33:41.791Z,9.47
2018-02-03T13:36:09.191Z,10.50
2018-02-03T13:38:36.674Z,9.57
2018-02-03T13:41:04.045Z,9.37
2018-02-03T13:43:31.443Z,9.40
2018-02-03T13:45:58.838Z,10.20
2018-02-03T13:48:26.238Z,10.43
2018-02-03T13:50:53.614Z,9.33
2018-02-03T13:53:21.018Z,9.27
2018-02-03T13:55:48.428Z,8.10
2018-02-03T13:58:15.817Z,8.17
2018-02-03T14:00:43.205Z,7.80
2018-02-03T14:03:10.603Z,9.70
2018-02-03T14:05:38.015Z,8.80
2018-02-03T14:08:06.166Z,10.00
2018-02-03T14:10:34.081Z,9.30
2018-02-03T14:13:01.474Z,8.47
2018-02-03T14:15:28.929Z,9.80
2018-02-03T14:17:56.379Z,7.37
2018-02-03T14:20:23.850Z,8.40
2018-02-03T14:22:51.235Z,7.53
2018-02-03T14:25:18.618Z,8.13
2018-02-03T14:27:46.019Z,8.10
2018-02-03T14:30:13.458Z,7.70
2018-02-03T14:32:40.842Z,8.20
2018-02-03T14:35:08.248Z,7.10
2018-02-03T14:37:35.635Z,6.93
2018-02-03T14:40:03.046Z,7.00
2018-02-03T14:42:30.434Z,6.70
2018-02-03T14:44:57.829Z,7.50
2018-02-03T14:47:25.206Z,7.33
2018-02-03T14:49:52.606Z,7.00
2018-02-03T14:52:19.994Z,7.10
2018-02-03T14:54:47.431Z,7.17
2018-02-03T14:57:14.835Z,8.00
2018-02-03T14:59:42.447Z,7.40
2018-02-03T15:02:09.877Z,6.80
2018-02-03T15:04:37.452Z,7.30
2018-02-03T15:07:04.925Z,6.57
2018-02-03T15:09:32.296Z,6.90
2018-02-03T15:11:59.718Z,8.07
2018-02-03T15:14:27.102Z,7.90
2018-02-03T15:16:54.490Z,7.43
2018-02-03T15:19:21.935Z,6.80
2018-02-03T15:21:49.310Z,6.70
2018-02-03T15:24:16.751Z,6.60
2018-02-03T15:26:44.266Z,7.90
2018-02-03T15:29:11.642Z,8.03
2018-02-03T15:31:39.045Z,7.40
2018-02-03T15:34:06.422Z,6.40
2018-02-03T15:36:33.851Z,6.90
2018-02-03T15:39:01.337Z,6.40
2018-02-03T15:41:28.732Z,6.57
2018-02-03T15:43:56.155Z,6.53
2018-02-03T15:46:23.545Z,6.30
2018-02-03T15:48:50.921Z,6.37
2018-02-03T15:51:18.367Z,6.57
2018-02-03T15:53:45.743Z,7.00
2018-02-03T15:56:13.155Z,6.67
2018-02-03T15:58:40.542Z,5.70
2018-02-03T16:01:08.028Z,5.70
2018-02-03T16:03:35.411Z,6.67
2018-02-03T16:06:02.810Z,7.17
2018-02-03T16:08:30.223Z,6.63
2018-02-03T16:10:57.600Z,7.07
2018-02-03T16:13:25.000Z,6.80
2018-02-03T16:15:52.396Z,6.77
2018-02-03T16:18:19.803Z,7.53
2018-02-03T16:20:47.224Z,7.10
2018-02-03T16:23:14.616Z,7.43
2018-02-03T16:25:42.002Z,7.70
2018-02-03T16:28:09.412Z,7.97
2018-02-03T16:30:36.875Z,8.10
2018-02-03T16:33:04.266Z,7.07
2018-02-03T16:35:31.641Z,8.20
2018-02-03T16:37:59.082Z,6.57
2018-02-03T16:40:26.466Z,7.23
2018-02-03T16:42:53.876Z,7.03
2018-02-03T16:45:21.450Z,7.20
2018-02-03T16:47:48.850Z,7.37
2018-02-03T16:50:16.254Z,7.33
2018-02-03T16:52:43.646Z,7.43
2018-02-03T16:55:11.035Z,7.87
2018-02-03T16:57:38.458Z,8.77
2018-02-03T17:00:05.938Z,7.83
2018-02-03T17:02:33.308Z,9.47
2018-02-03T17:05:00.739Z,7.90
2018-02-03T17:07:28.214Z,9.37
2018-02-03T17:09:55.605Z,9.03
2018-02-03T17:12:23.002Z,8.80
2018-02-03T17:14:50.428Z,11.80
2018-02-03T17:17:17.814Z,14.50
2018-02-03T17:19:45.208Z,11.37
2018-02-03T17:22:12.602Z,10.70
2018-02-03T17:24:40.008Z,10.90
2018-02-03T17:27:07.416Z,10.63
2018-02-03T17:29:34.794Z,12.50
2018-02-03T17:32:02.195Z,12.60
2018-02-03T17:34:29.607Z,12.17
2018-02-03T17:37:02.694Z,11.37
2018-02-03T17:39:30.103Z,11.53
2018-02-03T17:41:57.491Z,11.27
2018-02-03T17:44:24.907Z,11.20
2018-02-03T17:46:58.043Z,11.63
2018-02-03T17:49:25.451Z,10.90
2018-02-03T17:51:52.845Z,10.07
2018-02-03T17:54:20.799Z,11.03
2018-02-03T17:56:53.897Z,11.57
2018-02-03T17:59:21.287Z,9.53
2018-02-03T18:01:48.675Z,9.50
2018-02-03T18:04:16.087Z,9.30
2018-02-03T18:06:49.046Z,7.80
2018-02-03T18:09:16.463Z,10.07
2018-02-03T18:11:44.014Z,8.07
2018-02-03T18:14:11.412Z,8.30
2018-02-03T18:16:38.820Z,8.50
2018-02-03T18:19:06.186Z,8.60
2018-02-03T18:21:33.607Z,9.10
2018-02-03T18:24:00.994Z,8.97
2018-02-03T18:26:28.407Z,9.30
2018-02-03T18:28:55.805Z,8.00
2018-02-03T18:31:23.194Z,7.90
2018-02-03T18:33:50.610Z,7.80
2018-02-03T18:38:42.374Z,8.23
2018-02-03T18:41:09.777Z,7.67
2018-02-03T18:43:37.167Z,7.47
2018-02-03T18:46:04.586Z,7.27
2018-02-03T18:48:31.973Z,7.80
2018-02-03T18:50:59.450Z,6.60
2018-02-03T18:53:26.831Z,5.90
2018-02-03T18:55:54.213Z,7.83
2018-02-03T18:58:21.600Z,6.23
2018-02-03T19:00:48.990Z,6.70
2018-02-03T19:03:16.394Z,7.70
2018-02-03T19:05:43.807Z,6.20
2018-02-03T19:08:11.181Z,5.50
2018-02-03T19:10:38.566Z,6.53
2018-02-03T19:13:05.982Z,7.20
2018-02-03T19:15:33.384Z,6.07
2018-02-03T19:18:00.795Z,6.50
2018-02-03T19:20:28.283Z,7.60
2018-02-03T19:22:55.675Z,6.73
2018-02-03T19:25:23.070Z,7.40
2018-02-03T19:27:50.474Z,6.70
2018-02-03T19:30:17.871Z,7.50
2018-02-03T19:32:45.271Z,7.30
2018-02-03T19:35:12.663Z,7.70
2018-02-03T19:37:40.055Z,6.93
2018-02-03T19:40:07.442Z,8.27
2018-02-03T19:42:34.831Z,6.63
2018-02-03T19:45:02.226Z,8.37
2018-02-03T19:47:29.616Z,8.57
2018-02-03T19:49:57.011Z,8.70
2018-02-03T19:52:24.434Z,9.43
2018-02-03T19:54:51.831Z,8.87
2018-02-03T19:57:19.234Z,8.77
2018-02-03T19:59:46.610Z,8.03
2018-02-03T20:02:14.026Z,8.37
2018-02-03T20:04:41.408Z,8.43
2018-02-03T20:07:08.811Z,7.60
2018-02-03T20:09:36.221Z,7.70
2018-02-03T20:12:03.597Z,7.40
2018-02-03T20:14:30.990Z,5.63
2018-02-03T20:16:58.382Z,5.60
2018-02-03T20:19:25.775Z,5.37
2018-02-03T20:21:53.187Z,5.87
2018-02-03T20:24:20.599Z,6.40
2018-02-03T20:26:47.986Z,6.03
2018-02-03T20:29:15.386Z,6.40
2018-02-03T20:31:42.790Z,4.90
2018-02-03T20:34:10.235Z,6.10
2018-02-03T20:36:37.615Z,4.10
2018-02-03T20:39:05.010Z,5.93
2018-02-03T20:41:32.423Z,5.37
2018-02-03T20:43:59.792Z,5.63
2018-02-03T20:46:27.201Z,4.90
2018-02-03T20:48:54.607Z,5.20
2018-02-03T20:51:21.991Z,5.17
2018-02-03T20:53:49.394Z,5.07
2018-02-03T20:56:16.785Z,5.53
2018-02-03T20:58:44.157Z,6.37
2018-02-03T21:01:11.647Z,6.20
2018-02-03T21:03:39.067Z,6.27
2018-02-03T21:06:06.463Z,5.17
2018-02-03T21:08:33.853Z,6.80
2018-02-03T21:11:01.266Z,5.70
2018-02-03T21:13:28.658Z,6.07
2018-02-03T21:15:56.055Z,7.27
2018-02-03T21:18:23.455Z,6.57
2018-02-03T21:20:50.871Z,6.83
2018-02-03T21:23:18.279Z,5.90
2018-02-03T21:25:45.683Z,7.90
2018-02-03T21:28:13.130Z,7.37
2018-02-03T21:30:40.559Z,7.07
2018-02-03T21:33:07.955Z,7.60
2018-02-03T21:35:35.406Z,8.03
2018-02-03T21:38:02.786Z,9.53
2018-02-03T21:40:30.240Z,9.47
2018-02-03T21:42:57.635Z,10.63
2018-02-03T21:45:25.049Z,10.93
2018-02-03T21:47:52.429Z,10.60
2018-02-03T21:50:19.855Z,10.60
2018-02-03T21:52:47.254Z,9.93
2018-02-03T21:55:14.639Z,8.23
2018-02-03T21:57:42.029Z,9.07
2018-02-03T22:00:09.431Z,9.73
2018-02-03T22:02:36.845Z,8.13
2018-02-03T22:05:04.238Z,7.47
2018-02-03T22:07:32.322Z,7.90
2018-02-03T22:09:59.711Z,7.47
2018-02-03T22:12:27.106Z,8.50
2018-02-03T22:14:54.518Z,8.77
2018-02-03T22:17:21.915Z,7.20
2018-02-03T22:19:49.320Z,7.73
2018-02-03T22:22:16.734Z,8.87
2018-02-03T22:24:44.138Z,7.60
2018-02-03T22:27:11.520Z,8.40
2018-02-03T22:29:38.947Z,8.23
2018-02-03T22:32:06.522Z,7.53
2018-02-03T22:34:33.909Z,8.27
2018-02-03T22:37:01.332Z,8.30
2018-02-03T22:39:28.784Z,8.10
2018-02-03T22:41:56.193Z,8.80
2018-02-03T22:44:23.597Z,6.60
2018-02-03T22:46:51.007Z,8.07
2018-02-03T22:49:18.395Z,7.73
2018-02-03T22:51:45.827Z,8.27
2018-02-03T22:54:13.285Z,7.73
2018-02-03T22:56:40.666Z,7.97
2018-02-03T22:59:08.062Z,7.37
2018-02-03T23:01:35.555Z,8.07
2018-02-03T23:04:02.945Z,7.10
2018-02-03T23:06:30.343Z,8.50
2018-02-03T23:08:57.790Z,8.30
2018-02-03T23:11:25.177Z,7.40
2018-02-03T23:13:52.567Z,7.60
2018-02-03T23:16:19.958Z,8.70
2018-02-03T23:18:47.367Z,8.77
2018-02-03T23:21:14.782Z,9.23
2018-02-03T23:23:42.198Z,8.43
2018-02-03T23:26:09.614Z,8.83
2018-02-03T23:28:37.031Z,9.90
2018-02-03T23:31:04.422Z,9.93
2018-02-03T23:33:31.838Z,10.00
2018-02-03T23:35:59.226Z,9.40
2018-02-03T23:38:26.625Z,10.00
2018-02-03T23:40:54.031Z,9.43
2018-02-03T23:43:21.429Z,10.03
2018-02-03T23:45:48.833Z,8.90
2018-02-03T23:48:16.231Z,8.37
2018-02-03T23:50:43.707Z,10.67
2018-02-03T23:53:11.118Z,11.10
2018-02-03T23:55:38.544Z,10.73
2018-02-03T23:58:05.980Z,12.10
